Main page
METAR-TAF:

METAR-TAF

Airports :

Base Aérea de Armilla

Granada, Spain

latitude: 37-08N, longitude: 003-38-08W, elevation: 700 m

Current weather observation

The report was made 5 hours and 44 minutes ago, at 14:00 UTC
Wind 4 kt from the West/Southwest, varying between South/Southwest and North/Northwest
Temperature 11°C
Humidity 43%
Pressure 1022 hPa
Visibility 10 km or more
no clouds below 1500 m and no cumulonimbus

METAR: LEGA 211400Z 25004KT 200V340 CAVOK 11/M01 Q1022

Time: 20:44 (19:44 UTC)

Forecast

The report was made 8 hours and 44 minutes ago, at 11:00 UTC
Forecast valid from 21 at 12 UTC to 22 at 12 UTC
Wind 3 kt from variable directions
Visibility 10 km or more
no clouds below 1500 m and no cumulonimbus
Becoming
from 21 at 16 UTC to 21 at 18 UTC
Wind 10 kt from the South
Becoming
from 21 at 20 UTC to 21 at 22 UTC
Wind 2 kt from variable directions

TAF: LEGA 211100Z 2112/2212 VRB03KT CAVOK TX13/2115Z TNM02/2207Z BECMG 2116/2118 17010KT BECMG 2120/2122 VRB02KT

Weather observations and forecasts of more than 4000 airports (METAR and TAF reports).

The available stations are represented by yellow and red dots on the map.

Hover mouse over dot to see the name of the station.

Then click to see weather observations and forecasts.

To change the map : click on the green buttons with a black cross to zoom in, on the green button with a dash to zoom out, or on the green arrows for adjacent maps.


METAR-TAF: